Wall Lake, South Dakota
Current Conditions -  °F | °C
As of 12:56 AM on Monday 22 Dec 2014 (Local Time) from KFSD Reporting Station
Light Rain Light Rain  
Wind Chill: 31°   Ceiling: 700
Heat Index: 40°   Visibility: 9mi
Dew Point: 38°   Wind: 18mph
Humidity: 93%   Direction: 180°S
Pressure: 29.53"   Gusts: NA
Location:  43.6522°N, 96.9799°W
Report Text: KFSD 220656Z AUTO 18016KT 9SM -RA OVC007 04/03 A2953 RMK AO2 PK WND 18026/0627 RAB26 SLP010 P0000 T00440033
Loading
Personal Weather Stations






























Interactive Weather Map New forecast layout! Learn more

10-Day Weather Forecast

Advertisements
Track Severe Weather on mobile